createdAt,value
2023-02-07T00:01:43.316Z,103238.34
2023-02-07T00:06:45.231Z,103243.66
2023-02-07T00:11:47.493Z,103243.69
2023-02-07T00:16:49.604Z,103236.59
2023-02-07T00:21:51.510Z,103237.47
2023-02-07T00:26:53.718Z,103233.94
2023-02-07T00:31:55.634Z,103225.13
2023-02-07T00:36:57.782Z,103225.97
2023-02-07T00:41:59.690Z,103211.81
2023-02-07T00:47:01.611Z,103217.16
2023-02-07T00:52:03.903Z,103211.88
2023-02-07T00:57:05.829Z,103221.56
2023-02-07T01:02:07.743Z,103228.63
2023-02-07T01:07:09.698Z,103222.47
2023-02-07T01:12:11.682Z,103240.13
2023-02-07T01:17:13.618Z,103233.94
2023-02-07T01:22:15.505Z,103236.59
2023-02-07T01:27:17.708Z,103234.84
2023-02-07T01:32:19.759Z,103246.31
2023-02-07T01:37:21.797Z,103247.22
2023-02-07T01:42:26.132Z,103234.84
2023-02-07T01:47:29.534Z,103228.66
2023-02-07T01:52:38.880Z,103218.03
2023-02-07T01:57:40.977Z,103229.53
2023-02-07T02:02:43.300Z,103232.19
2023-02-07T02:07:45.690Z,103230.44
2023-02-07T02:13:32.506Z,103226.88
2023-02-07T02:18:43.288Z,103210.09
2023-02-07T02:24:04.004Z,103205.69
2023-02-07T02:29:30.882Z,103207.47
2023-02-07T02:34:52.686Z,103208.34
2023-02-07T02:40:21.977Z,103211.00
2023-02-07T02:45:39.608Z,103207.47
2023-02-07T02:50:47.551Z,103202.16
2023-02-07T02:56:11.564Z,103204.81
2023-02-07T03:01:30.597Z,103210.13
2023-02-07T03:06:58.474Z,103211.88
2023-02-07T03:12:48.628Z,103214.53
2023-02-07T03:18:09.640Z,103203.03
2023-02-07T03:23:14.249Z,103214.50
2023-02-07T03:28:18.751Z,103197.75
2023-02-07T03:33:21.434Z,103205.66
2023-02-07T03:38:23.809Z,103197.75
2023-02-07T03:43:29.804Z,103190.66
2023-02-07T03:48:32.108Z,103195.97
2023-02-07T03:53:34.122Z,103192.44
2023-02-07T03:58:36.345Z,103203.06
2023-02-07T04:03:38.117Z,103190.69
2023-02-07T04:08:40.278Z,103201.28
2023-02-07T04:13:42.284Z,103191.56
2023-02-07T04:18:44.375Z,103187.16
2023-02-07T04:23:46.271Z,103202.16
2023-02-07T04:28:48.226Z,103188.91
2023-02-07T04:33:50.317Z,103189.81
2023-02-07T04:38:52.324Z,103188.94
2023-02-07T04:43:54.424Z,103193.34
2023-02-07T04:48:56.414Z,103189.81
2023-02-07T04:53:58.672Z,103185.38
2023-02-07T04:59:00.618Z,103184.50
2023-02-07T05:04:02.381Z,103188.91
2023-02-07T05:09:04.338Z,103188.03
2023-02-07T05:14:06.175Z,103192.47
2023-02-07T05:19:08.019Z,103193.34
2023-02-07T05:24:09.977Z,103194.22
2023-02-07T05:29:11.916Z,103193.34
2023-02-07T05:34:13.958Z,103197.75
2023-02-07T05:39:15.890Z,103203.94
2023-02-07T05:44:17.915Z,103212.78
2023-02-07T05:49:19.994Z,103220.72
2023-02-07T05:54:21.886Z,103221.63
2023-02-07T05:59:23.858Z,103215.44
2023-02-07T06:04:26.044Z,103213.66
2023-02-07T06:09:27.841Z,103226.03
2023-02-07T06:14:29.588Z,103232.22
2023-02-07T06:19:31.665Z,103236.63
2023-02-07T06:24:33.597Z,103241.03
2023-02-07T06:29:35.737Z,103254.28
2023-02-07T06:34:37.885Z,103263.13
2023-02-07T06:39:40.372Z,103262.25
2023-02-07T06:44:42.344Z,103267.56
2023-02-07T06:49:44.286Z,103275.50
2023-02-07T06:54:46.218Z,103289.63
2023-02-07T06:59:48.080Z,103285.22
2023-02-07T07:04:50.938Z,103293.16
2023-02-07T07:09:52.846Z,103298.47
2023-02-07T07:14:54.935Z,103317.00
2023-02-07T07:19:56.998Z,103305.53
2023-02-07T07:24:58.888Z,103305.53
2023-02-07T07:30:01.807Z,103299.34
2023-02-07T07:35:04.816Z,103310.84
2023-02-07T07:40:07.274Z,103302.88
2023-02-07T07:45:10.343Z,103315.22
2023-02-07T07:50:14.605Z,103309.94
2023-02-07T07:55:16.670Z,103317.91
2023-02-07T08:00:18.710Z,103314.38
2023-02-07T08:05:20.904Z,103320.56
2023-02-07T08:10:22.777Z,103317.03
2023-02-07T08:15:25.674Z,103312.59
2023-02-07T08:20:27.713Z,103316.16
2023-02-07T08:25:29.666Z,103309.06
2023-02-07T08:30:31.835Z,103309.06
2023-02-07T08:35:33.845Z,103304.63
2023-02-07T08:40:36.838Z,103317.03
2023-02-07T08:45:46.132Z,103313.47
2023-02-07T08:50:48.022Z,103305.53
2023-02-07T08:55:50.994Z,103309.06
2023-02-07T09:00:52.803Z,103300.25
2023-02-07T09:05:59.111Z,103296.72
2023-02-07T09:11:01.225Z,103298.47
2023-02-07T09:16:03.244Z,103291.38
2023-02-07T09:21:05.636Z,103296.69
2023-02-07T09:26:08.348Z,103289.63
2023-02-07T09:31:12.086Z,103295.81
2023-02-07T09:36:25.795Z,103295.81
2023-02-07T09:41:54.867Z,103294.03
2023-02-07T09:47:06.342Z,103299.34
2023-02-07T09:52:15.101Z,103299.34
2023-02-07T09:57:37.726Z,103305.53
2023-02-07T10:02:45.599Z,103305.53
2023-02-07T10:07:49.128Z,103305.53
2023-02-07T10:13:12.067Z,103304.63
2023-02-07T10:18:17.494Z,103297.56
2023-02-07T10:23:28.378Z,103279.03
2023-02-07T10:28:40.584Z,103284.34
2023-02-07T10:33:48.626Z,103275.50
2023-02-07T10:39:14.494Z,103284.34
2023-02-07T10:44:20.577Z,103274.63
2023-02-07T10:49:29.213Z,103271.09
2023-02-07T10:54:51.076Z,103280.81
2023-02-07T11:00:23.533Z,103278.16
2023-02-07T11:05:25.634Z,103287.84
2023-02-07T11:10:39.201Z,103277.25
2023-02-07T11:16:04.810Z,103279.91
2023-02-07T11:21:19.981Z,103272.88
2023-02-07T11:26:23.638Z,103268.44
2023-02-07T11:31:31.913Z,103262.25
2023-02-07T11:36:34.839Z,103264.03
2023-02-07T11:41:39.497Z,103268.44
2023-02-07T11:46:44.194Z,103259.63
2023-02-07T11:51:46.657Z,103276.38
2023-02-07T11:56:55.739Z,103261.38
2023-02-07T12:01:59.464Z,103256.94
2023-02-07T12:07:06.540Z,103256.06
2023-02-07T12:12:23.628Z,103252.53
2023-02-07T12:17:47.772Z,103254.31
2023-02-07T12:23:40.332Z,103249.00
2023-02-07T12:28:49.608Z,103241.97
2023-02-07T12:34:01.649Z,103243.69
2023-02-07T12:39:14.065Z,103244.59
2023-02-07T12:44:31.238Z,103243.72
2023-02-07T12:50:03.890Z,103247.22
2023-02-07T12:55:15.044Z,103242.81
2023-02-07T13:00:37.904Z,103241.94
2023-02-07T13:06:02.646Z,103239.28
2023-02-07T13:11:32.082Z,103231.34
2023-02-07T13:16:49.393Z,103236.66
2023-02-07T13:22:24.665Z,103229.59
2023-02-07T13:27:29.161Z,103229.56
2023-02-07T13:32:31.147Z,103216.31
2023-02-07T13:38:08.863Z,103228.69
2023-02-07T13:43:21.169Z,103216.34
2023-02-07T13:48:29.031Z,103218.97
2023-02-07T13:53:39.891Z,103212.78
2023-02-07T13:59:00.160Z,103215.47
2023-02-07T14:04:08.593Z,103212.81
2023-02-07T14:09:10.432Z,103205.75
2023-02-07T14:14:28.711Z,103205.75
2023-02-07T14:19:39.728Z,103199.56
2023-02-07T14:24:51.759Z,103193.38
2023-02-07T14:29:56.487Z,103185.44
2023-02-07T14:35:16.957Z,103192.50
2023-02-07T14:40:24.117Z,103183.66
2023-02-07T14:45:30.362Z,103187.19
2023-02-07T14:50:33.946Z,103180.13
2023-02-07T14:55:42.747Z,103182.78
2023-02-07T15:00:48.719Z,103182.78
2023-02-07T15:05:54.366Z,103178.38
2023-02-07T15:11:04.201Z,103173.97
2023-02-07T15:16:08.230Z,103181.91
2023-02-07T15:21:19.078Z,103189.84
2023-02-07T15:26:21.210Z,103185.41
2023-02-07T15:31:23.466Z,103191.63
2023-02-07T15:36:37.774Z,103187.19
2023-02-07T15:41:39.792Z,103189.84
2023-02-07T15:46:51.515Z,103187.19
2023-02-07T15:52:01.101Z,103185.41
2023-02-07T15:57:02.910Z,103183.66
2023-02-07T16:02:05.138Z,103181.00
2023-02-07T16:07:12.093Z,103183.66
2023-02-07T16:12:40.679Z,103190.72
2023-02-07T16:17:42.637Z,103186.31
2023-02-07T16:22:46.130Z,103195.13
2023-02-07T16:27:51.890Z,103198.69
2023-02-07T16:32:54.024Z,103198.69
2023-02-07T16:37:56.270Z,103210.16
2023-02-07T16:42:58.304Z,103211.91
2023-02-07T16:48:00.940Z,103211.91
2023-02-07T16:53:02.726Z,103218.97
2023-02-07T16:58:06.458Z,103215.44
2023-02-07T17:03:15.406Z,103227.81
2023-02-07T17:08:22.995Z,103234.88
2023-02-07T17:13:25.285Z,103234.00
2023-02-07T17:18:27.342Z,103247.22
2023-02-07T17:23:29.420Z,103236.63
2023-02-07T17:28:33.111Z,103252.53
2023-02-07T17:33:35.129Z,103253.41
2023-02-07T17:38:36.985Z,103256.06
2023-02-07T17:43:41.428Z,103249.88
2023-02-07T17:48:43.917Z,103246.34
2023-02-07T17:53:46.812Z,103252.53
2023-02-07T17:58:48.979Z,103250.75
2023-02-07T18:03:54.010Z,103241.94
2023-02-07T18:08:58.913Z,103241.94
2023-02-07T18:14:02.307Z,103239.31
2023-02-07T18:19:04.627Z,103237.53
2023-02-07T18:24:06.899Z,103241.06
2023-02-07T18:29:09.755Z,103240.16
2023-02-07T18:34:14.470Z,103232.22
2023-02-07T18:39:16.458Z,103227.81
2023-02-07T18:44:18.259Z,103218.09
2023-02-07T18:49:20.458Z,103220.75
2023-02-07T18:54:23.202Z,103225.16
2023-02-07T18:59:26.023Z,103225.19
2023-02-07T19:04:28.114Z,103211.94
2023-02-07T19:09:30.123Z,103211.03
2023-02-07T19:14:32.741Z,103211.03
2023-02-07T19:19:35.126Z,103211.94
2023-02-07T19:24:37.375Z,103212.81
2023-02-07T19:29:39.371Z,103214.56
2023-02-07T19:34:41.372Z,103203.97
2023-02-07T19:39:45.251Z,103211.03
2023-02-07T19:44:48.333Z,103208.38
2023-02-07T19:49:52.241Z,103208.41
2023-02-07T19:54:55.829Z,103211.03
2023-02-07T19:59:57.909Z,103211.03
2023-02-07T20:04:59.674Z,103209.28
2023-02-07T20:10:01.923Z,103205.75
2023-02-07T20:15:04.141Z,103207.50
2023-02-07T20:20:06.959Z,103202.19
2023-02-07T20:25:09.258Z,103196.03
2023-02-07T20:30:11.578Z,103199.56
2023-02-07T20:35:15.217Z,103200.47
2023-02-07T20:40:18.202Z,103186.34
2023-02-07T20:45:20.315Z,103183.69
2023-02-07T20:50:22.408Z,103181.03
2023-02-07T20:55:25.291Z,103173.09
2023-02-07T21:00:27.176Z,103176.59
2023-02-07T21:05:29.502Z,103176.59
2023-02-07T21:10:31.572Z,103172.22
2023-02-07T21:15:33.590Z,103168.66
2023-02-07T21:20:38.289Z,103166.03
2023-02-07T21:25:40.401Z,103177.50
2023-02-07T21:30:42.709Z,103176.59
2023-02-07T21:35:44.914Z,103175.72
2023-02-07T21:40:46.890Z,103177.50
2023-02-07T21:45:48.944Z,103167.78
2023-02-07T21:50:50.977Z,103171.31
2023-02-07T21:55:52.963Z,103172.19
2023-02-07T22:00:55.237Z,103170.41
2023-02-07T22:05:57.259Z,103173.94
2023-02-07T22:11:03.322Z,103179.22
2023-02-07T22:16:07.629Z,103172.19
2023-02-07T22:21:14.980Z,103172.22
2023-02-07T22:26:18.043Z,103166.91
2023-02-07T22:31:24.892Z,103163.38
2023-02-07T22:36:30.199Z,103161.59
2023-02-07T22:41:32.987Z,103155.41
2023-02-07T22:46:34.978Z,103145.72
2023-02-07T22:51:38.350Z,103157.19
2023-02-07T22:56:40.352Z,103148.38
2023-02-07T23:01:42.659Z,103152.78
2023-02-07T23:06:46.404Z,103166.00
2023-02-07T23:11:48.596Z,103152.78
2023-02-07T23:16:50.458Z,103151.03
2023-02-07T23:21:52.253Z,103153.69
2023-02-07T23:26:54.328Z,103151.91
2023-02-07T23:31:56.447Z,103161.59
2023-02-07T23:36:58.686Z,103166.91
2023-02-07T23:42:00.695Z,103167.81
2023-02-07T23:47:03.297Z,103169.56
2023-02-07T23:52:05.306Z,103164.28
2023-02-07T23:57:07.388Z,103168.69
